Time;durP1;ratioP1;P1;durP2;ratioP2;P2;SDS_P1;SDS_P2;PMS_P1;PMS_P2;Temp;Humidity;BMP_temperature;BMP_pressure;BME280_temperature;BME280_humidity;BME280_pressure;Samples;Min_cycle;Max_cycle;Signal;HPM_P1;HPM_P2
2023/03/20 00:01:28;;;;;;;8.13;5.40;;;7.70;99.90;;;;;;4984266;28;20455;-88
2023/03/20 00:04:14;;;;;;;12.10;4.80;;;7.70;99.90;;;;;;4987875;28;20453;-88
2023/03/20 00:07:00;;;;;;;6.43;5.27;;;7.60;99.90;;;;;;4982777;28;20448;-88
2023/03/20 00:09:46;;;;;;;6.00;5.00;;;7.70;99.90;;;;;;4990294;28;20523;-88
2023/03/20 00:12:33;;;;;;;8.33;5.77;;;7.60;99.90;;;;;;4986563;28;20444;-88
2023/03/20 00:15:29;;;;;;;6.10;5.00;;;7.50;99.90;;;;;;4989625;28;20448;-87
2023/03/20 00:18:18;;;;;;;5.50;4.80;;;7.50;99.90;;;;;;4986191;28;20446;-87
2023/03/20 00:21:04;;;;;;;9.47;4.20;;;7.60;99.90;;;;;;4980232;28;20522;-87
2023/03/20 00:23:50;;;;;;;6.03;4.63;;;7.60;99.90;;;;;;4983253;28;20439;-87
2023/03/20 00:26:37;;;;;;;5.40;4.90;;;7.70;99.90;;;;;;4985882;28;21113;-88
2023/03/20 00:29:26;;;;;;;5.60;4.80;;;7.70;99.90;;;;;;4983114;28;20464;-87
2023/03/20 00:32:13;;;;;;;7.97;5.30;;;7.70;99.90;;;;;;4980140;28;20460;-87
2023/03/20 00:34:58;;;;;;;11.97;5.40;;;7.70;99.90;;;;;;4988458;28;20499;-88
2023/03/20 00:37:44;;;;;;;5.70;5.10;;;7.60;99.90;;;;;;4988021;28;20567;-88
2023/03/20 00:40:31;;;;;;;7.17;5.57;;;7.60;99.90;;;;;;4987770;28;20475;-86
2023/03/20 00:43:17;;;;;;;12.50;5.10;;;7.50;99.90;;;;;;4986480;28;20416;-88
2023/03/20 00:46:05;;;;;;;8.50;5.07;;;7.50;99.90;;;;;;4986659;28;20455;-88
2023/03/20 00:48:50;;;;;;;6.60;5.17;;;7.60;99.90;;;;;;4985624;28;20525;-87
2023/03/20 00:51:37;;;;;;;7.77;5.93;;;7.70;99.90;;;;;;4981475;28;20448;-87
2023/03/20 00:54:22;;;;;;;6.47;5.60;;;7.70;99.90;;;;;;4979721;28;20537;-87
2023/03/20 00:57:13;;;;;;;8.43;6.07;;;7.80;99.90;;;;;;4981275;28;20464;-87
2023/03/20 01:00:03;;;;;;;8.23;5.20;;;7.80;99.90;;;;;;4986152;28;20464;-88
2023/03/20 01:02:53;;;;;;;6.20;5.57;;;7.90;99.90;;;;;;4989670;28;20520;-88
2023/03/20 01:05:39;;;;;;;7.83;5.43;;;8.00;99.90;;;;;;4990658;28;20991;-88
2023/03/20 01:08:26;;;;;;;6.50;5.90;;;8.00;99.90;;;;;;4987514;28;20479;-89
2023/03/20 01:11:13;;;;;;;8.63;5.73;;;8.00;99.90;;;;;;4986911;28;20447;-88
2023/03/20 01:13:59;;;;;;;9.83;5.93;;;8.10;99.90;;;;;;4988456;28;20461;-88
2023/03/20 01:16:45;;;;;;;9.70;5.93;;;8.10;99.90;;;;;;4991306;28;20830;-88
2023/03/20 01:19:32;;;;;;;7.50;5.97;;;8.20;99.90;;;;;;4990863;28;20480;-88
2023/03/20 01:22:18;;;;;;;6.83;6.13;;;8.30;99.90;;;;;;4990652;28;20575;-89
2023/03/20 01:25:04;;;;;;;7.60;6.00;;;8.30;99.90;;;;;;4989053;28;20445;-88
2023/03/20 01:27:51;;;;;;;7.47;5.77;;;8.30;99.90;;;;;;4990346;28;20588;-89
2023/03/20 01:30:37;;;;;;;9.90;6.10;;;8.20;99.90;;;;;;4985142;28;20550;-88
2023/03/20 01:33:25;;;;;;;10.57;6.57;;;8.10;99.90;;;;;;4988542;28;20440;-88
2023/03/20 01:36:14;;;;;;;8.87;6.10;;;8.00;99.90;;;;;;4989128;28;20562;-88
2023/03/20 01:38:59;;;;;;;8.10;6.00;;;8.00;99.90;;;;;;4988549;28;20505;-88
2023/03/20 01:41:46;;;;;;;8.23;6.50;;;8.10;99.90;;;;;;4987941;28;20782;-88
2023/03/20 01:44:34;;;;;;;10.67;6.63;;;8.10;99.90;;;;;;4987783;28;20446;-88
2023/03/20 01:47:22;;;;;;;7.80;6.37;;;8.20;99.90;;;;;;4990080;28;20461;-87
2023/03/20 01:50:21;;;;;;;6.27;5.67;;;8.30;99.90;;;;;;4987579;28;20452;-88
2023/03/20 01:53:14;;;;;;;9.20;6.70;;;8.30;99.90;;;;;;4991798;28;20464;-88
2023/03/20 01:56:01;;;;;;;8.50;6.90;;;8.40;99.90;;;;;;4989145;28;20485;-88
2023/03/20 01:58:56;;;;;;;11.80;6.60;;;8.40;99.90;;;;;;4987292;28;20543;-88
2023/03/20 02:01:44;;;;;;;9.13;8.00;;;8.40;99.90;;;;;;4986441;28;20456;-88
2023/03/20 02:04:34;;;;;;;7.20;6.37;;;8.40;99.90;;;;;;4986238;28;20621;-88
2023/03/20 02:07:22;;;;;;;9.47;6.27;;;8.50;99.90;;;;;;4990766;28;20670;-89
2023/03/20 02:10:12;;;;;;;8.57;7.33;;;8.40;99.90;;;;;;4982842;28;20838;-87
2023/03/20 02:12:59;;;;;;;9.47;6.40;;;8.40;99.90;;;;;;4987769;28;20584;-88
2023/03/20 02:16:11;;;;;;;8.80;6.47;;;8.50;99.90;;;;;;4985477;28;20443;-89
2023/03/20 02:18:58;;;;;;;8.00;6.97;;;8.40;99.90;;;;;;4979460;28;20897;-88
2023/03/20 02:22:25;;;;;;;8.80;6.47;;;8.40;99.90;;;;;;4989321;28;20799;-88
2023/03/20 02:25:46;;;;;;;11.23;6.43;;;8.40;99.90;;;;;;4941546;28;20457;-88
2023/03/20 02:29:09;;;;;;;8.57;6.87;;;8.40;99.90;;;;;;4986733;28;20558;-88
2023/03/20 02:32:27;;;;;;;7.87;6.53;;;8.40;99.90;;;;;;4991013;28;20451;-89
2023/03/20 02:35:48;;;;;;;11.80;6.30;;;8.40;99.90;;;;;;4990961;28;20594;-88
2023/03/20 02:39:06;;;;;;;8.43;7.60;;;8.50;99.90;;;;;;4988590;28;20474;-88
2023/03/20 02:42:03;;;;;;;7.40;6.23;;;8.50;99.90;;;;;;4967371;28;20452;-88
2023/03/20 02:44:58;;;;;;;8.80;6.27;;;8.60;99.90;;;;;;4988605;28;20437;-89
2023/03/20 02:47:51;;;;;;;7.07;6.10;;;8.60;99.90;;;;;;4985871;28;20451;-88
2023/03/20 02:50:41;;;;;;;6.90;5.87;;;8.60;99.90;;;;;;4982380;28;20585;-88
2023/03/20 02:53:35;;;;;;;12.50;5.90;;;8.70;99.90;;;;;;4986430;28;20440;-88
2023/03/20 02:56:28;;;;;;;8.30;6.03;;;8.70;99.90;;;;;;4988907;28;20465;-89
2023/03/20 02:59:23;;;;;;;8.57;5.80;;;8.70;99.90;;;;;;4984176;28;20603;-88
2023/03/20 03:02:14;;;;;;;7.90;5.80;;;8.70;99.90;;;;;;4981308;28;20440;-88
2023/03/20 03:05:02;;;;;;;9.87;5.97;;;8.60;99.90;;;;;;4987798;28;20441;-88
2023/03/20 03:07:51;;;;;;;11.10;7.13;;;8.60;99.90;;;;;;4988392;28;20970;-88
2023/03/20 03:10:41;;;;;;;10.30;6.27;;;8.60;99.90;;;;;;4984507;28;20469;-88
2023/03/20 03:13:29;;;;;;;8.83;6.43;;;8.60;99.90;;;;;;4985497;28;20449;-89
2023/03/20 03:16:21;;;;;;;8.37;5.70;;;8.70;99.90;;;;;;4983607;28;20469;-89
2023/03/20 03:19:10;;;;;;;8.73;6.23;;;8.70;99.90;;;;;;4985441;28;20483;-87
2023/03/20 03:21:56;;;;;;;10.83;6.17;;;8.60;99.90;;;;;;4987308;28;20448;-89
2023/03/20 03:24:44;;;;;;;8.43;6.53;;;8.70;99.90;;;;;;4988756;28;20543;-88
2023/03/20 03:27:36;;;;;;;7.53;6.73;;;8.80;99.90;;;;;;4984293;28;20523;-89
2023/03/20 03:30:26;;;;;;;12.50;7.20;;;8.80;99.90;;;;;;4980378;28;21027;-89
2023/03/20 03:33:21;;;;;;;11.63;7.67;;;8.80;99.90;;;;;;4988438;28;20925;-88
2023/03/20 03:36:15;;;;;;;7.33;6.60;;;8.70;99.90;;;;;;4991747;28;20579;-88
2023/03/20 03:39:07;;;;;;;12.53;7.13;;;8.70;99.90;;;;;;4986416;28;20904;-88
2023/03/20 03:42:02;;;;;;;7.63;6.77;;;8.70;99.90;;;;;;4985411;28;20453;-88
2023/03/20 03:44:55;;;;;;;6.90;6.27;;;8.70;99.90;;;;;;4991739;28;20548;-88
2023/03/20 03:47:46;;;;;;;11.07;8.80;;;8.70;99.90;;;;;;4991874;28;20489;-88
2023/03/20 03:50:37;;;;;;;10.70;9.60;;;8.70;99.90;;;;;;4988251;28;20467;-88
2023/03/20 03:53:26;;;;;;;17.93;10.40;;;8.70;99.90;;;;;;4992369;28;20524;-88
2023/03/20 03:56:14;;;;;;;11.90;9.80;;;8.80;99.90;;;;;;4991679;28;20511;-88
2023/03/20 03:59:03;;;;;;;14.10;10.27;;;8.80;99.90;;;;;;4987890;28;20451;-88
2023/03/20 04:01:51;;;;;;;12.77;9.53;;;8.80;99.90;;;;;;4991821;28;20577;-88
2023/03/20 04:04:42;;;;;;;11.67;9.10;;;8.80;99.90;;;;;;4991497;28;20433;-88
2023/03/20 04:07:29;;;;;;;10.70;9.10;;;8.80;99.90;;;;;;4991803;28;20553;-88
2023/03/20 04:10:15;;;;;;;13.63;9.53;;;8.80;99.90;;;;;;4978291;28;20583;-88
2023/03/20 04:13:01;;;;;;;17.70;9.00;;;8.80;99.90;;;;;;4991476;28;20443;-88
2023/03/20 04:15:47;;;;;;;9.30;8.30;;;8.80;99.90;;;;;;4990968;28;20477;-89
2023/03/20 04:18:33;;;;;;;11.50;8.33;;;8.80;99.90;;;;;;4984400;28;20561;-89
2023/03/20 04:21:19;;;;;;;12.90;8.70;;;8.80;99.90;;;;;;4988718;28;20437;-89
2023/03/20 04:24:07;;;;;;;10.10;9.10;;;8.80;99.90;;;;;;4992149;28;20500;-88
2023/03/20 04:26:52;;;;;;;11.10;8.40;;;8.90;99.90;;;;;;4991984;28;20421;-89
2023/03/20 04:29:38;;;;;;;9.83;8.13;;;9.00;99.90;;;;;;4984234;28;20476;-89
2023/03/20 04:32:24;;;;;;;8.70;7.77;;;9.10;99.90;;;;;;4991677;28;20456;-88
2023/03/20 04:35:10;;;;;;;9.90;8.13;;;9.10;99.90;;;;;;4994510;28;20483;-90
2023/03/20 04:37:55;;;;;;;10.23;7.90;;;9.10;99.90;;;;;;4992020;28;20467;-89
2023/03/20 04:40:43;;;;;;;9.23;7.90;;;9.10;99.90;;;;;;4994481;28;20488;-88
2023/03/20 04:43:29;;;;;;;11.50;8.20;;;9.10;99.90;;;;;;4982175;28;20436;-88
2023/03/20 04:46:14;;;;;;;8.40;7.60;;;9.10;99.90;;;;;;4994731;28;20437;-88
2023/03/20 04:49:00;;;;;;;11.37;8.20;;;9.10;99.90;;;;;;4992201;28;20951;-89
2023/03/20 04:51:45;;;;;;;12.00;7.53;;;9.10;99.90;;;;;;4985400;28;20429;-89
2023/03/20 04:54:31;;;;;;;9.37;8.40;;;9.00;99.90;;;;;;4994283;28;20441;-88
2023/03/20 04:57:18;;;;;;;13.70;7.93;;;9.00;99.90;;;;;;4993544;28;21038;-88
2023/03/20 05:00:05;;;;;;;9.50;8.50;;;9.00;99.90;;;;;;4987862;28;20433;-88
2023/03/20 05:02:50;;;;;;;10.00;8.43;;;9.10;99.90;;;;;;4995038;28;20438;-89
2023/03/20 05:05:36;;;;;;;10.40;8.80;;;9.10;99.90;;;;;;4993820;28;20806;-88
2023/03/20 05:08:22;;;;;;;10.63;8.87;;;8.90;99.90;;;;;;4989768;28;20627;-89
2023/03/20 05:11:08;;;;;;;11.80;8.60;;;8.90;99.90;;;;;;5000628;28;20440;-88
2023/03/20 05:13:55;;;;;;;10.50;8.80;;;9.00;99.90;;;;;;4998394;28;20440;-88
2023/03/20 05:16:41;;;;;;;10.73;9.60;;;9.00;99.90;;;;;;4994474;28;20464;-87
2023/03/20 05:19:27;;;;;;;9.07;8.13;;;8.90;99.90;;;;;;4986398;28;21005;-89
2023/03/20 05:22:13;;;;;;;9.80;8.70;;;9.00;99.90;;;;;;4989870;28;20523;-88
2023/03/20 05:24:59;;;;;;;13.07;8.50;;;9.00;99.90;;;;;;4994474;28;20432;-88
2023/03/20 05:27:46;;;;;;;10.23;7.73;;;9.10;99.90;;;;;;4991548;28;20465;-88
2023/03/20 05:30:33;;;;;;;10.33;7.30;;;9.10;99.90;;;;;;4987256;28;20441;-88
2023/03/20 05:33:19;;;;;;;9.10;8.20;;;9.10;99.90;;;;;;4994220;28;20563;-88
2023/03/20 05:36:06;;;;;;;9.83;7.80;;;9.10;99.90;;;;;;4993703;28;20576;-88
2023/03/20 05:38:51;;;;;;;8.90;7.70;;;9.20;99.90;;;;;;4986452;28;20840;-88
2023/03/20 05:41:37;;;;;;;9.33;7.97;;;9.20;99.90;;;;;;4994109;28;20549;-88
2023/03/20 05:44:23;;;;;;;16.50;7.20;;;9.30;99.90;;;;;;4993457;28;20436;-89
2023/03/20 05:47:10;;;;;;;8.63;7.20;;;9.40;99.90;;;;;;4990510;28;20841;-88
2023/03/20 05:49:56;;;;;;;12.33;7.80;;;9.40;99.90;;;;;;4989478;28;20430;-88
2023/03/20 05:52:41;;;;;;;7.43;6.77;;;9.40;99.90;;;;;;4994008;28;20795;-88
2023/03/20 05:55:27;;;;;;;9.20;6.87;;;9.40;99.90;;;;;;4992855;28;21127;-88
2023/03/20 05:58:12;;;;;;;8.53;7.63;;;9.40;99.90;;;;;;4988846;28;20917;-89
2023/03/20 06:00:59;;;;;;;9.30;7.60;;;9.40;99.90;;;;;;4989642;28;20425;-88
2023/03/20 06:03:45;;;;;;;10.17;8.60;;;9.40;99.90;;;;;;4993680;28;20441;-88
2023/03/20 06:06:32;;;;;;;8.63;7.73;;;9.40;99.90;;;;;;4990983;28;20432;-88
2023/03/20 06:09:18;;;;;;;14.70;8.90;;;9.40;99.90;;;;;;4985627;28;20515;-88
2023/03/20 06:12:04;;;;;;;13.93;8.60;;;9.40;99.90;;;;;;4990545;28;20445;-89
2023/03/20 06:14:50;;;;;;;9.00;7.90;;;9.40;99.90;;;;;;4993123;28;20577;-89
2023/03/20 06:17:35;;;;;;;12.83;7.63;;;9.30;99.90;;;;;;4985291;28;20922;-88
2023/03/20 06:20:23;;;;;;;9.07;8.17;;;9.40;99.90;;;;;;4984573;28;20648;-88
2023/03/20 06:23:09;;;;;;;10.53;8.47;;;9.50;99.90;;;;;;4995743;28;20767;-88
2023/03/20 06:25:55;;;;;;;13.70;8.37;;;9.40;99.90;;;;;;4993544;28;20573;-89
2023/03/20 06:28:41;;;;;;;10.27;8.03;;;9.40;99.90;;;;;;4984666;28;20476;-88
2023/03/20 06:31:26;;;;;;;11.30;8.67;;;9.50;99.90;;;;;;4991529;28;20470;-88
2023/03/20 06:34:12;;;;;;;13.43;9.40;;;9.60;99.90;;;;;;4992673;28;20945;-89
2023/03/20 06:36:59;;;;;;;13.73;9.83;;;9.60;99.90;;;;;;4987104;28;21130;-88
2023/03/20 06:39:45;;;;;;;17.23;10.07;;;9.70;99.90;;;;;;4983897;28;20465;-89
2023/03/20 06:42:30;;;;;;;9.20;7.20;;;9.70;99.90;;;;;;4993034;28;20665;-88
2023/03/20 06:45:17;;;;;;;10.70;8.60;;;9.70;99.90;;;;;;4992333;28;20552;-89
2023/03/20 06:48:05;;;;;;;15.57;11.97;;;9.70;99.90;;;;;;4996602;28;20548;-89
2023/03/20 06:50:51;;;;;;;17.30;11.33;;;9.80;99.90;;;;;;4988352;28;20504;-88
2023/03/20 06:53:40;;;;;;;14.03;11.10;;;9.90;99.90;;;;;;4993441;28;20444;-88
2023/03/20 06:56:25;;;;;;;16.27;11.20;;;9.90;99.90;;;;;;4987910;28;20467;-88
2023/03/20 06:59:11;;;;;;;15.50;11.53;;;10.00;99.90;;;;;;4992685;28;20457;-88
2023/03/20 07:01:57;;;;;;;13.70;11.10;;;10.10;99.90;;;;;;4980567;28;20799;-88
2023/03/20 07:04:43;;;;;;;17.97;13.23;;;10.20;99.90;;;;;;4989428;28;20445;-89
2023/03/20 07:07:28;;;;;;;14.53;11.20;;;10.20;99.90;;;;;;4984418;28;20960;-88
2023/03/20 07:10:16;;;;;;;16.20;11.67;;;10.20;99.90;;;;;;4992627;28;20454;-89
2023/03/20 07:13:01;;;;;;;16.37;12.17;;;10.20;99.90;;;;;;4992282;28;20424;-89
2023/03/20 07:15:46;;;;;;;17.80;13.97;;;10.30;99.90;;;;;;4990610;28;20480;-88
2023/03/20 07:18:35;;;;;;;17.03;12.73;;;10.20;99.90;;;;;;4987461;28;20492;-88
2023/03/20 07:21:22;;;;;;;22.53;13.57;;;10.30;99.90;;;;;;4980831;28;20667;-89
2023/03/20 07:24:08;;;;;;;17.00;13.27;;;10.30;99.90;;;;;;4992111;28;21047;-89
2023/03/20 07:26:56;;;;;;;25.73;14.03;;;10.40;99.90;;;;;;4987510;28;20441;-88
2023/03/20 07:29:41;;;;;;;17.00;14.50;;;10.40;99.90;;;;;;4989724;28;20460;-88
2023/03/20 07:32:27;;;;;;;18.43;14.80;;;10.40;99.90;;;;;;4992821;28;20497;-89
2023/03/20 07:35:13;;;;;;;21.83;16.37;;;10.30;99.90;;;;;;4991462;28;20411;-89
2023/03/20 07:37:59;;;;;;;20.37;15.27;;;10.30;99.90;;;;;;4983021;28;20600;-89
2023/03/20 07:40:44;;;;;;;23.70;15.53;;;10.40;99.90;;;;;;4984793;28;20428;-89
2023/03/20 07:43:31;;;;;;;18.17;14.50;;;10.40;99.90;;;;;;4992760;28;20425;-89
2023/03/20 07:46:17;;;;;;;19.80;15.30;;;10.50;99.90;;;;;;4987958;28;20445;-89
2023/03/20 07:49:04;;;;;;;23.37;17.00;;;10.50;99.90;;;;;;4985294;28;20575;-89
2023/03/20 07:51:50;;;;;;;21.67;17.13;;;10.50;99.90;;;;;;5001058;28;20437;-89
2023/03/20 07:54:36;;;;;;;21.57;17.00;;;10.50;99.90;;;;;;4991497;28;20513;-88
2023/03/20 07:57:22;;;;;;;23.00;17.37;;;10.60;99.90;;;;;;4983862;28;20548;-88
2023/03/20 08:00:11;;;;;;;24.77;15.70;;;10.50;99.90;;;;;;4988263;28;20479;-89
2023/03/20 08:02:57;;;;;;;17.83;15.20;;;10.40;99.90;;;;;;4991774;28;20433;-89
2023/03/20 08:05:43;;;;;;;18.03;15.73;;;10.50;99.90;;;;;;4977712;28;20471;-88
2023/03/20 08:08:29;;;;;;;20.00;16.00;;;10.50;99.90;;;;;;4982632;28;20457;-88
2023/03/20 08:11:15;;;;;;;19.80;14.97;;;10.50;99.90;;;;;;4983286;28;20789;-88
2023/03/20 08:14:01;;;;;;;19.70;15.73;;;10.50;99.90;;;;;;4995555;28;20407;-88
2023/03/20 08:16:48;;;;;;;19.80;15.83;;;10.50;99.90;;;;;;4987761;28;20468;-89
2023/03/20 08:19:35;;;;;;;20.50;15.17;;;10.40;99.90;;;;;;4994946;28;20499;-88
2023/03/20 08:22:20;;;;;;;20.07;15.70;;;10.30;99.90;;;;;;4999871;28;20451;-88
2023/03/20 08:25:08;;;;;;;24.03;16.20;;;10.30;99.90;;;;;;4990082;28;20454;-88
2023/03/20 08:27:54;;;;;;;20.57;16.60;;;10.30;99.90;;;;;;4994828;28;20788;-88
2023/03/20 08:30:40;;;;;;;22.27;16.03;;;10.40;99.90;;;;;;4996196;28;20435;-88
2023/03/20 08:33:27;;;;;;;20.73;16.73;;;10.40;99.90;;;;;;4995359;28;20436;-88
2023/03/20 08:36:14;;;;;;;21.10;16.27;;;10.50;99.90;;;;;;4988828;28;20469;-88
2023/03/20 08:39:00;;;;;;;24.50;19.00;;;10.60;99.90;;;;;;4989241;28;20452;-88
2023/03/20 08:41:45;;;;;;;18.40;15.67;;;10.50;99.90;;;;;;4995112;28;20431;-88
2023/03/20 08:44:31;;;;;;;20.50;16.00;;;10.50;99.90;;;;;;4993256;28;20479;-89
2023/03/20 08:47:17;;;;;;;19.60;16.53;;;10.60;99.90;;;;;;4988328;28;20938;-88
2023/03/20 08:50:04;;;;;;;28.83;17.60;;;10.50;99.90;;;;;;4993680;28;20588;-88
2023/03/20 08:52:50;;;;;;;21.20;17.10;;;10.50;99.90;;;;;;4986440;28;20418;-89
2023/03/20 08:55:36;;;;;;;22.70;17.27;;;10.50;99.90;;;;;;4981071;28;21070;-89
2023/03/20 08:58:31;;;;;;;28.00;18.50;;;10.50;99.90;;;;;;4991923;28;20472;-89
2023/03/20 09:01:18;;;;;;;24.17;17.53;;;10.40;99.90;;;;;;5006903;28;20502;-89
2023/03/20 09:04:04;;;;;;;20.10;16.03;;;10.50;99.90;;;;;;4994359;28;20557;-88
2023/03/20 09:06:51;;;;;;;23.47;17.30;;;10.50;99.90;;;;;;4981173;28;20437;-88
2023/03/20 09:09:37;;;;;;;23.50;17.53;;;10.50;99.90;;;;;;4992289;28;20457;-89
2023/03/20 09:12:23;;;;;;;24.07;18.13;;;10.50;99.90;;;;;;5007324;28;20952;-88
2023/03/20 09:15:09;;;;;;;27.40;19.97;;;10.50;99.90;;;;;;4978849;28;20445;-88
2023/03/20 09:17:55;;;;;;;23.20;17.57;;;10.50;99.90;;;;;;4988008;28;20529;-89
2023/03/20 09:20:40;;;;;;;38.70;17.07;;;10.50;99.90;;;;;;4991821;28;20440;-89
2023/03/20 09:23:27;;;;;;;22.97;16.13;;;10.50;99.90;;;;;;4991778;28;20454;-89
2023/03/20 09:26:13;;;;;;;24.73;16.57;;;10.50;99.90;;;;;;4990262;28;20548;-88
2023/03/20 09:28:59;;;;;;;23.47;16.47;;;10.50;99.90;;;;;;4993975;28;20512;-89
2023/03/20 09:31:45;;;;;;;22.13;15.87;;;10.60;99.90;;;;;;5007172;28;20424;-88
2023/03/20 09:34:30;;;;;;;24.00;17.60;;;10.60;99.90;;;;;;4976554;28;20624;-89
2023/03/20 09:37:16;;;;;;;25.37;17.83;;;10.60;99.90;;;;;;4993204;28;20464;-87
2023/03/20 09:40:04;;;;;;;32.10;19.57;;;10.70;99.90;;;;;;4993857;28;20453;-87
2023/03/20 09:42:57;;;;;;;19.17;15.43;;;10.70;99.90;;;;;;4993595;28;20418;-89
2023/03/20 09:45:50;;;;;;;27.30;17.50;;;10.70;99.90;;;;;;4992786;28;20460;-88
2023/03/20 09:48:41;;;;;;;23.60;17.10;;;10.80;99.90;;;;;;5001523;28;20462;-88
2023/03/20 09:51:36;;;;;;;26.93;17.30;;;10.90;99.90;;;;;;4993641;28;20820;-89
2023/03/20 09:54:25;;;;;;;23.50;16.23;;;10.80;99.90;;;;;;4988131;28;21064;-88
2023/03/20 09:57:19;;;;;;;23.33;16.87;;;10.90;99.90;;;;;;4989588;28;20546;-89
2023/03/20 10:00:10;;;;;;;29.27;18.80;;;10.90;99.90;;;;;;4990509;28;20444;-89
2023/03/20 10:03:00;;;;;;;26.83;16.87;;;11.00;99.90;;;;;;5000968;28;20441;-89
2023/03/20 10:05:51;;;;;;;25.83;16.80;;;11.20;99.90;;;;;;4988431;28;20813;-89
2023/03/20 10:08:38;;;;;;;27.20;17.53;;;11.30;99.90;;;;;;4992803;28;20654;-89
2023/03/20 10:11:58;;;;;;;24.27;15.30;;;11.40;99.90;;;;;;4991132;28;21056;-89
2023/03/20 10:14:54;;;;;;;25.27;15.63;;;11.40;99.90;;;;;;4978098;28;20466;-88
2023/03/20 10:17:50;;;;;;;25.17;16.70;;;11.50;99.90;;;;;;4980640;28;20593;-89
2023/03/20 10:20:42;;;;;;;26.47;17.33;;;11.60;99.90;;;;;;4986701;28;20441;-90
2023/03/20 10:23:36;;;;;;;26.07;15.87;;;11.70;99.90;;;;;;4989269;28;20512;-89
2023/03/20 10:26:23;;;;;;;27.73;17.57;;;11.90;99.90;;;;;;4987132;28;20604;-89
2023/03/20 10:29:24;;;;;;;25.63;15.30;;;11.90;99.90;;;;;;4986500;28;20559;-89
2023/03/20 10:32:16;;;;;;;26.50;15.30;;;11.90;99.90;;;;;;4988450;28;20824;-89
2023/03/20 10:35:15;;;;;;;30.60;15.50;;;11.90;99.90;;;;;;4989086;28;20464;-90
2023/03/20 10:38:18;;;;;;;22.80;15.27;;;11.80;99.90;;;;;;4989869;28;20489;-89
2023/03/20 10:41:09;;;;;;;29.30;16.57;;;11.80;99.90;;;;;;4989480;28;21040;-88
2023/03/20 10:43:57;;;;;;;24.30;14.80;;;11.80;99.90;;;;;;4985569;28;20453;-88
2023/03/20 10:46:48;;;;;;;26.70;15.57;;;11.70;99.90;;;;;;4992078;28;20461;-89
2023/03/20 10:49:39;;;;;;;25.60;15.83;;;11.70;99.90;;;;;;4992113;28;20596;-89
2023/03/20 10:52:29;;;;;;;27.30;14.80;;;11.70;99.90;;;;;;4992273;28;20773;-89
2023/03/20 10:55:18;;;;;;;21.10;13.83;;;11.80;99.90;;;;;;4982351;28;20941;-88
2023/03/20 10:58:17;;;;;;;28.67;15.43;;;11.80;99.90;;;;;;4985930;28;20497;-89
2023/03/20 11:01:02;;;;;;;23.10;14.93;;;11.80;99.90;;;;;;4983584;28;20455;-89
2023/03/20 11:03:48;;;;;;;23.40;15.60;;;11.90;99.90;;;;;;4979891;28;20821;-88
2023/03/20 11:06:42;;;;;;;21.57;14.07;;;11.90;99.90;;;;;;4988504;28;20422;-89
2023/03/20 11:09:29;;;;;;;24.53;15.70;;;12.00;99.90;;;;;;4992063;28;20476;-88
2023/03/20 11:12:18;;;;;;;24.80;14.90;;;12.10;99.90;;;;;;4992209;28;20441;-89
2023/03/20 11:15:19;;;;;;;26.30;15.30;;;12.10;99.90;;;;;;4983327;28;20455;-89
2023/03/20 11:18:12;;;;;;;22.87;15.07;;;12.10;99.90;;;;;;4991378;28;20476;-89
2023/03/20 11:21:01;;;;;;;25.47;14.70;;;12.10;99.90;;;;;;4988094;28;20437;-88
2023/03/20 11:23:49;;;;;;;28.30;17.20;;;12.10;99.90;;;;;;4984352;28;21002;-88
2023/03/20 11:26:38;;;;;;;24.47;14.77;;;12.00;99.90;;;;;;4987716;28;20452;-88
2023/03/20 11:29:30;;;;;;;24.60;15.50;;;12.00;99.90;;;;;;4980823;28;20447;-89
2023/03/20 11:32:26;;;;;;;21.17;15.57;;;11.90;99.90;;;;;;4987848;28;20861;-88
2023/03/20 11:35:21;;;;;;;22.00;13.67;;;11.90;99.90;;;;;;4988016;28;20464;-89
2023/03/20 11:38:14;;;;;;;27.60;15.20;;;11.90;99.90;;;;;;4975382;28;20489;-89
2023/03/20 11:41:05;;;;;;;23.73;15.23;;;12.00;99.90;;;;;;4990086;28;20442;-89
2023/03/20 11:43:51;;;;;;;22.53;15.70;;;12.10;99.90;;;;;;4992946;28;20456;-88
2023/03/20 11:46:37;;;;;;;21.07;13.10;;;12.20;99.90;;;;;;4990476;28;21064;-88
2023/03/20 11:49:24;;;;;;;21.97;13.37;;;12.30;99.90;;;;;;4988768;28;20467;-88
2023/03/20 11:52:13;;;;;;;20.30;12.80;;;12.40;99.90;;;;;;4990896;28;20523;-89
2023/03/20 11:55:01;;;;;;;20.00;11.80;;;12.60;99.90;;;;;;4994805;28;20433;-89
2023/03/20 11:57:49;;;;;;;19.97;10.83;;;12.80;99.90;;;;;;4991263;28;20450;-89
2023/03/20 12:00:38;;;;;;;17.57;11.47;;;13.10;99.90;;;;;;4992752;28;21056;-88
2023/03/20 12:03:46;;;;;;;18.27;11.43;;;13.30;99.90;;;;;;5004496;28;20452;-88
2023/03/20 12:06:42;;;;;;;15.83;10.93;;;13.50;99.90;;;;;;4995546;28;20403;-89
2023/03/20 12:09:39;;;;;;;17.03;10.80;;;13.70;99.90;;;;;;4990110;28;20680;-88
2023/03/20 12:12:36;;;;;;;14.20;9.70;;;13.90;99.90;;;;;;4993288;28;20500;-89
2023/03/20 12:15:26;;;;;;;14.80;9.40;;;13.90;99.90;;;;;;4994737;28;20445;-89
2023/03/20 12:18:20;;;;;;;18.30;10.00;;;13.80;99.90;;;;;;4985986;28;20485;-89
2023/03/20 12:21:12;;;;;;;14.83;9.60;;;14.00;99.90;;;;;;4989345;28;21017;-88
2023/03/20 12:24:02;;;;;;;14.47;9.70;;;14.30;99.90;;;;;;4988993;28;20424;-89
2023/03/20 12:26:54;;;;;;;13.00;8.60;;;14.60;99.90;;;;;;4991297;28;20496;-89
2023/03/20 12:29:46;;;;;;;16.03;8.70;;;14.70;99.90;;;;;;4990966;28;20600;-89
2023/03/20 12:32:40;;;;;;;12.80;8.60;;;14.60;99.90;;;;;;4992037;28;20477;-89
2023/03/20 12:35:28;;;;;;;13.53;8.13;;;14.40;99.90;;;;;;4990177;28;20597;-89
2023/03/20 12:38:23;;;;;;;15.50;7.97;;;14.10;99.90;;;;;;4987205;28;20944;-89
2023/03/20 12:41:13;;;;;;;10.10;7.50;;;13.90;99.90;;;;;;4991790;28;20967;-88
2023/03/20 12:44:26;;;;;;;14.40;7.83;;;13.70;99.90;;;;;;4990046;28;20448;-88
2023/03/20 12:47:42;;;;;;;10.73;6.77;;;13.50;99.90;;;;;;4987104;28;20806;-89
2023/03/20 12:50:33;;;;;;;11.20;8.20;;;13.40;99.90;;;;;;4990327;28;20427;-88
2023/03/20 12:53:38;;;;;;;13.90;7.27;;;13.30;99.90;;;;;;4980975;28;20910;-89
2023/03/20 12:56:35;;;;;;;14.03;7.87;;;13.40;99.90;;;;;;4988342;28;20443;-88
2023/03/20 12:59:27;;;;;;;13.77;7.70;;;13.40;99.90;;;;;;4988370;28;20451;-88
2023/03/20 13:02:26;;;;;;;10.40;7.30;;;13.40;99.90;;;;;;4982486;28;20483;-88
2023/03/20 13:05:24;;;;;;;12.20;6.80;;;13.50;99.90;;;;;;4994232;28;20786;-89
2023/03/20 13:08:47;;;;;;;11.47;7.93;;;13.50;99.90;;;;;;4984750;28;20450;-88
2023/03/20 13:11:40;;;;;;;13.00;8.90;;;13.60;99.90;;;;;;4971810;28;20442;-88
2023/03/20 13:14:33;;;;;;;10.70;7.20;;;13.70;99.90;;;;;;4991128;28;20462;-87
2023/03/20 13:17:25;;;;;;;11.33;7.77;;;13.80;99.90;;;;;;4992576;28;20479;-88
2023/03/20 13:20:23;;;;;;;10.73;7.80;;;13.80;99.90;;;;;;4990419;28;20437;-87
2023/03/20 13:23:21;;;;;;;12.17;7.43;;;13.80;99.90;;;;;;4990882;28;20858;-87
2023/03/20 13:26:16;;;;;;;11.70;8.03;;;13.90;99.90;;;;;;4984242;28;20428;-88
2023/03/20 13:29:08;;;;;;;11.20;7.30;;;13.90;99.90;;;;;;4994460;28;20441;-88
2023/03/20 13:32:03;;;;;;;12.80;7.23;;;13.90;99.90;;;;;;4994279;28;20410;-88
2023/03/20 13:35:02;;;;;;;10.33;6.30;;;13.80;99.90;;;;;;4991081;28;20470;-89
2023/03/20 13:37:50;;;;;;;9.30;5.97;;;13.90;99.90;;;;;;4993865;28;20821;-88
2023/03/20 13:40:42;;;;;;;8.17;5.40;;;13.90;99.90;;;;;;4993927;28;20535;-88
2023/03/20 13:43:34;;;;;;;11.20;5.93;;;13.90;99.90;;;;;;4989220;28;20936;-88
2023/03/20 13:46:24;;;;;;;7.60;5.33;;;13.70;99.90;;;;;;4991859;28;20784;-87
2023/03/20 13:49:19;;;;;;;6.30;4.80;;;13.70;99.90;;;;;;4994018;28;20457;-89
2023/03/20 13:52:10;;;;;;;9.27;5.70;;;13.70;99.90;;;;;;4988223;28;20799;-87
2023/03/20 13:55:16;;;;;;;8.30;5.03;;;13.70;99.90;;;;;;4988323;28;20545;-88
2023/03/20 13:58:18;;;;;;;10.40;5.60;;;13.70;99.90;;;;;;4993936;28;20563;-88
2023/03/20 14:01:10;;;;;;;7.77;4.50;;;13.60;99.90;;;;;;4993819;28;20417;-89
2023/03/20 14:03:56;;;;;;;9.33;4.60;;;13.60;99.90;;;;;;4990962;28;20577;-88
2023/03/20 14:06:52;;;;;;;16.20;5.93;;;13.60;99.90;;;;;;4985946;28;20415;-88
2023/03/20 14:09:38;;;;;;;7.80;5.40;;;13.60;99.90;;;;;;4991617;28;20465;-88
2023/03/20 14:12:26;;;;;;;9.03;5.00;;;13.60;99.90;;;;;;4992569;28;20435;-88
2023/03/20 14:15:12;;;;;;;7.57;5.13;;;13.60;99.90;;;;;;4986766;28;20563;-88
2023/03/20 14:18:04;;;;;;;6.17;4.30;;;13.60;99.90;;;;;;4992645;28;20480;-89
2023/03/20 14:20:56;;;;;;;6.40;4.50;;;13.60;99.90;;;;;;4985743;28;20477;-88
2023/03/20 14:23:46;;;;;;;7.03;4.60;;;13.60;99.90;;;;;;4985337;28;20973;-88
2023/03/20 14:26:35;;;;;;;9.43;3.80;;;13.70;99.90;;;;;;4990920;28;20442;-88
2023/03/20 14:29:31;;;;;;;5.60;3.90;;;13.80;99.90;;;;;;4993239;28;20461;-88
2023/03/20 14:32:35;;;;;;;6.50;4.60;;;13.80;99.90;;;;;;4992428;28;20410;-87
2023/03/20 14:35:26;;;;;;;8.37;4.87;;;13.90;99.90;;;;;;4988601;28;20473;-89
2023/03/20 14:38:24;;;;;;;10.90;4.50;;;13.90;99.90;;;;;;4986350;28;20463;-88